createdAt,value
2017-11-18T00:00:51.400Z,98709.65
2017-11-18T00:01:56.190Z,98725.31
2017-11-18T00:03:00.034Z,98711.24
2017-11-18T00:04:03.772Z,98713.05
2017-11-18T00:05:07.593Z,98728.28
2017-11-18T00:06:11.588Z,98704.55
2017-11-18T00:07:15.333Z,98719.25
2017-11-18T00:08:19.120Z,98704.78
2017-11-18T00:09:22.858Z,98704.08
2017-11-18T00:10:26.568Z,98716.59
2017-11-18T00:11:31.284Z,98716.60
2017-11-18T00:12:35.840Z,98713.02
2017-11-18T00:13:39.598Z,98722.50
2017-11-18T00:14:43.346Z,98719.44
2017-11-18T00:15:47.072Z,98720.96
2017-11-18T00:16:50.834Z,98718.95
2017-11-18T00:17:54.534Z,98701.83
2017-11-18T00:18:58.581Z,98714.77
2017-11-18T00:20:02.748Z,98716.23
2017-11-18T00:21:06.492Z,98692.80
2017-11-18T00:22:10.283Z,98705.54
2017-11-18T00:23:14.021Z,98707.00
2017-11-18T00:24:17.803Z,98698.58
2017-11-18T00:25:22.054Z,98682.70
2017-11-18T00:26:25.791Z,98697.50
2017-11-18T00:27:29.504Z,98706.84
2017-11-18T00:28:33.334Z,98705.61
2017-11-18T00:29:37.221Z,98703.30
2017-11-18T00:30:41.088Z,98713.30
2017-11-18T00:31:45.178Z,98701.58
2017-11-18T00:32:49.004Z,98684.55
2017-11-18T00:33:52.845Z,98697.67
2017-11-18T00:34:56.652Z,98717.54
2017-11-18T00:36:00.580Z,98714.64
2017-11-18T00:37:04.445Z,98710.95
2017-11-18T00:38:08.657Z,98696.53
2017-11-18T00:39:12.524Z,98692.77
2017-11-18T00:40:16.353Z,98694.55
2017-11-18T00:41:20.249Z,98673.08
2017-11-18T00:42:24.113Z,98717.55
2017-11-18T00:43:27.913Z,98726.97
2017-11-18T00:44:31.996Z,98709.49
2017-11-18T00:45:35.697Z,98707.77
2017-11-18T00:46:39.429Z,98719.37
2017-11-18T00:47:43.171Z,98707.17
2017-11-18T00:48:46.904Z,98702.38
2017-11-18T00:49:50.959Z,98689.87
2017-11-18T00:50:54.784Z,98712.61
2017-11-18T00:51:58.519Z,98677.93
2017-11-18T00:53:02.257Z,98704.72
2017-11-18T00:54:05.963Z,98694.92
2017-11-18T00:55:09.636Z,98711.78
2017-11-18T00:56:13.628Z,98678.16
2017-11-18T00:57:17.312Z,98710.79
2017-11-18T00:58:21.036Z,98670.56
2017-11-18T00:59:24.764Z,98705.41
2017-11-18T01:00:28.501Z,98686.12
2017-11-18T01:01:32.269Z,98712.20
2017-11-18T01:02:36.250Z,98689.25
2017-11-18T01:03:39.956Z,98707.34
2017-11-18T01:04:43.653Z,98697.13
2017-11-18T01:05:47.360Z,98689.34
2017-11-18T01:06:51.073Z,98700.19
2017-11-18T01:07:54.732Z,98701.59
2017-11-18T01:08:58.739Z,98675.28
2017-11-18T01:10:03.024Z,98705.97
2017-11-18T01:11:07.750Z,98707.23
2017-11-18T01:12:11.550Z,98690.23
2017-11-18T01:13:15.253Z,98696.95
2017-11-18T01:14:18.996Z,98710.05
2017-11-18T01:15:23.037Z,98708.83
2017-11-18T01:16:26.774Z,98709.45
2017-11-18T01:17:30.487Z,98696.45
2017-11-18T01:18:34.223Z,98707.17
2017-11-18T01:19:38.380Z,98710.37
2017-11-18T01:20:42.196Z,98702.80
2017-11-18T01:21:46.209Z,98690.16
2017-11-18T01:22:49.977Z,98687.12
2017-11-18T01:23:53.770Z,98656.72
2017-11-18T01:24:57.472Z,98701.14
2017-11-18T01:26:01.204Z,98680.69
2017-11-18T01:27:05.030Z,98669.15
2017-11-18T01:28:10.039Z,98665.52
2017-11-18T01:29:13.785Z,98630.08
2017-11-18T01:30:17.593Z,98653.87
2017-11-18T01:31:21.311Z,98677.75
2017-11-18T01:32:25.194Z,98664.25
2017-11-18T01:33:28.801Z,98693.23
2017-11-18T01:34:32.653Z,98677.67
2017-11-18T01:35:36.229Z,98668.23
2017-11-18T01:36:40.028Z,98690.66
2017-11-18T01:37:43.752Z,98672.27
2017-11-18T01:38:47.594Z,98647.66
2017-11-18T01:39:51.241Z,98693.44
2017-11-18T01:40:55.169Z,98677.10
2017-11-18T01:41:58.936Z,98665.73
2017-11-18T01:43:03.640Z,98679.33
2017-11-18T01:44:07.421Z,98678.31
2017-11-18T01:45:11.238Z,98634.16
2017-11-18T01:46:15.555Z,98656.40
2017-11-18T01:47:19.677Z,98684.52
2017-11-18T01:48:23.461Z,98682.53
2017-11-18T01:49:27.235Z,98658.97
2017-11-18T01:50:30.949Z,98672.94
2017-11-18T01:51:34.654Z,98667.84
2017-11-18T01:52:38.380Z,98667.82
2017-11-18T01:53:42.409Z,98673.16
2017-11-18T01:54:46.210Z,98660.47
2017-11-18T01:55:50.323Z,98633.98
2017-11-18T01:56:54.589Z,98660.11
2017-11-18T01:57:58.301Z,98659.59
2017-11-18T01:59:02.545Z,98655.02
2017-11-18T02:00:06.830Z,98653.48
2017-11-18T02:16:38.942Z,98642.34
2017-11-18T02:17:42.765Z,98615.71
2017-11-18T02:18:46.637Z,98620.73
2017-11-18T02:19:50.481Z,98606.63
2017-11-18T02:20:54.285Z,98615.33
2017-11-18T02:21:58.441Z,98610.58
2017-11-18T02:23:02.385Z,98598.36
2017-11-18T02:24:07.876Z,98611.77
2017-11-18T02:25:11.688Z,98625.20
2017-11-18T02:26:15.501Z,98604.81
2017-11-18T02:27:19.422Z,98622.00
2017-11-18T02:28:23.496Z,98616.44
2017-11-18T02:29:27.310Z,98596.55
2017-11-18T02:30:31.144Z,98620.81
2017-11-18T02:31:35.053Z,98617.38
2017-11-18T02:32:38.861Z,98602.39
2017-11-18T02:33:42.653Z,98607.53
2017-11-18T02:34:46.764Z,98585.53
2017-11-18T02:35:51.214Z,98613.23
2017-11-18T02:36:55.017Z,98616.06
2017-11-18T02:37:59.106Z,98607.63
2017-11-18T02:39:02.891Z,98614.00
2017-11-18T02:40:06.714Z,98594.24
2017-11-18T02:41:10.861Z,98599.48
2017-11-18T02:42:14.686Z,98579.02
2017-11-18T02:43:18.450Z,98598.42
2017-11-18T02:44:22.269Z,98581.52
2017-11-18T02:45:26.041Z,98602.42
2017-11-18T02:46:29.884Z,98587.73
2017-11-18T02:47:33.915Z,98608.80
2017-11-18T02:48:37.644Z,98593.50
2017-11-18T02:49:41.411Z,98605.78
2017-11-18T02:50:45.240Z,98609.82
2017-11-18T02:51:49.097Z,98596.63
2017-11-18T02:52:53.745Z,98603.30
2017-11-18T02:53:57.821Z,98601.00
2017-11-18T02:55:01.692Z,98577.51
2017-11-18T02:56:05.476Z,98579.42
2017-11-18T02:57:09.254Z,98593.94
2017-11-18T02:58:13.116Z,98566.78
2017-11-18T02:59:16.890Z,98591.53
2017-11-18T03:00:21.315Z,98602.27
2017-11-18T03:01:25.070Z,98573.09
2017-11-18T03:02:28.909Z,98565.70
2017-11-18T03:03:32.725Z,98598.42
2017-11-18T03:04:36.521Z,98590.42
2017-11-18T03:05:40.299Z,98574.67
2017-11-18T03:06:44.615Z,98575.90
2017-11-18T03:07:48.393Z,98557.58
2017-11-18T03:08:52.640Z,98558.52
2017-11-18T03:09:56.402Z,98573.00
2017-11-18T03:11:00.302Z,98570.80
2017-11-18T03:12:04.073Z,98570.64
2017-11-18T03:13:08.265Z,98569.95
2017-11-18T03:14:12.039Z,98567.39
2017-11-18T03:15:15.773Z,98567.36
2017-11-18T03:16:19.542Z,98560.06
2017-11-18T03:17:23.110Z,98556.06
2017-11-18T03:18:26.776Z,98553.89
2017-11-18T03:19:30.777Z,98538.91
2017-11-18T03:20:34.468Z,98537.16
2017-11-18T03:21:38.245Z,98557.70
2017-11-18T03:22:41.926Z,98544.86
2017-11-18T03:23:45.678Z,98503.30
2017-11-18T03:24:49.347Z,98514.06
2017-11-18T03:25:53.334Z,98553.55
2017-11-18T03:26:57.041Z,98556.98
2017-11-18T03:28:00.807Z,98502.14
2017-11-18T03:29:04.539Z,98552.19
2017-11-18T03:30:08.639Z,98543.64
2017-11-18T03:31:12.436Z,98544.48
2017-11-18T03:32:16.462Z,98503.48
2017-11-18T03:33:20.136Z,98539.13
2017-11-18T03:34:23.891Z,98544.39
2017-11-18T03:35:27.580Z,98541.91
2017-11-18T03:36:31.243Z,98544.23
2017-11-18T03:37:34.937Z,98542.19
2017-11-18T03:38:38.942Z,98520.55
2017-11-18T03:39:42.716Z,98534.01
2017-11-18T03:40:46.466Z,98533.95
2017-11-18T03:41:50.154Z,98543.24
2017-11-18T03:42:53.907Z,98552.85
2017-11-18T03:43:57.878Z,98546.45
2017-11-18T03:45:02.075Z,98544.55
2017-11-18T03:46:05.748Z,98550.86
2017-11-18T03:47:09.490Z,98526.45
2017-11-18T03:48:13.365Z,98486.47
2017-11-18T03:49:16.960Z,98546.47
2017-11-18T03:50:20.722Z,98503.39
2017-11-18T03:51:24.545Z,98551.13
2017-11-18T03:52:28.142Z,98490.75
2017-11-18T03:53:31.727Z,98542.05
2017-11-18T03:54:35.378Z,98508.60
2017-11-18T03:55:39.129Z,98502.73
2017-11-18T03:56:42.894Z,98544.00
2017-11-18T03:57:46.966Z,98535.66
2017-11-18T03:58:50.811Z,98532.70
2017-11-18T03:59:54.628Z,98522.12
2017-11-18T04:00:58.524Z,98540.90
2017-11-18T04:02:04.429Z,98513.96
2017-11-18T04:03:08.572Z,98532.28
2017-11-18T04:04:12.647Z,98498.73
2017-11-18T04:05:16.470Z,98532.67
2017-11-18T04:06:20.267Z,98485.60
2017-11-18T04:07:24.055Z,98538.23
2017-11-18T04:08:27.815Z,98529.32
2017-11-18T04:09:31.588Z,98519.19
2017-11-18T04:10:35.650Z,98519.38
2017-11-18T04:11:39.467Z,98516.34
2017-11-18T04:12:43.329Z,98481.61
2017-11-18T04:13:47.123Z,98476.92
2017-11-18T04:14:50.922Z,98517.14
2017-11-18T04:15:54.804Z,98492.73
2017-11-18T04:16:59.873Z,98478.00
2017-11-18T04:18:03.676Z,98524.63
2017-11-18T04:19:07.428Z,98532.41
2017-11-18T04:20:11.139Z,98515.94
2017-11-18T04:21:14.906Z,98484.49
2017-11-18T04:22:18.588Z,98512.68
2017-11-18T04:23:22.554Z,98517.05
2017-11-18T04:24:26.249Z,98508.88
2017-11-18T04:25:30.063Z,98497.91
2017-11-18T04:26:33.889Z,98507.52
2017-11-18T04:27:37.706Z,98522.87
2017-11-18T04:28:41.541Z,98471.40
2017-11-18T04:29:45.757Z,98507.46
2017-11-18T04:30:49.527Z,98481.50
2017-11-18T04:31:53.449Z,98523.92
2017-11-18T04:32:57.221Z,98524.00
2017-11-18T04:34:01.089Z,98476.73
2017-11-18T04:35:05.575Z,98514.81
2017-11-18T04:36:09.653Z,98449.23
2017-11-18T04:37:13.490Z,98516.86
2017-11-18T04:38:17.289Z,98495.56
2017-11-18T04:39:21.176Z,98513.73
2017-11-18T04:40:24.955Z,98486.48
2017-11-18T04:41:28.753Z,98485.12
2017-11-18T04:42:32.927Z,98505.34
2017-11-18T04:43:36.767Z,98507.30
2017-11-18T04:44:40.533Z,98479.64
2017-11-18T04:45:44.345Z,98495.69
2017-11-18T04:46:48.160Z,98494.37
2017-11-18T04:47:52.015Z,98494.97
2017-11-18T04:48:56.102Z,98503.73
2017-11-18T04:49:59.891Z,98507.16
2017-11-18T04:51:03.718Z,98500.25
2017-11-18T04:52:07.779Z,98498.26
2017-11-18T04:53:11.629Z,98455.58
2017-11-18T04:54:15.513Z,98504.44
2017-11-18T04:55:19.504Z,98490.99
2017-11-18T04:56:23.188Z,98492.12
2017-11-18T04:57:26.986Z,98454.28
2017-11-18T04:58:30.666Z,98468.06
2017-11-18T04:59:34.385Z,98488.20
2017-11-18T05:15:39.203Z,98458.44
2017-11-18T05:16:43.459Z,98471.59
2017-11-18T05:17:47.171Z,98475.81
2017-11-18T05:18:50.914Z,98437.42
2017-11-18T05:19:54.635Z,98473.77
2017-11-18T05:20:59.673Z,98474.55
2017-11-18T05:22:03.386Z,98468.14
2017-11-18T05:23:07.001Z,98465.76
2017-11-18T05:24:10.574Z,98462.14
2017-11-18T05:25:14.136Z,98475.30
2017-11-18T05:26:17.677Z,98482.81
2017-11-18T05:27:21.682Z,98458.70
2017-11-18T05:28:25.395Z,98447.22
2017-11-18T05:29:29.145Z,98475.23
2017-11-18T05:30:32.939Z,98464.13
2017-11-18T05:31:36.608Z,98474.90
2017-11-18T05:32:40.332Z,98463.38
2017-11-18T05:33:44.329Z,98461.85
2017-11-18T05:34:48.054Z,98467.84
2017-11-18T05:35:51.802Z,98452.40
2017-11-18T05:36:55.558Z,98464.55
2017-11-18T05:37:59.277Z,98443.22
2017-11-18T05:39:03.016Z,98462.43
2017-11-18T05:40:07.743Z,98433.48
2017-11-18T05:41:11.670Z,98449.31
2017-11-18T05:42:15.412Z,98429.38
2017-11-18T05:43:19.183Z,98448.41
2017-11-18T05:44:22.925Z,98435.42
2017-11-18T05:45:26.975Z,98455.31
2017-11-18T05:46:31.098Z,98432.00
2017-11-18T05:47:34.795Z,98395.73
2017-11-18T05:48:38.568Z,98456.63
2017-11-18T05:49:42.366Z,98458.98
2017-11-18T05:50:46.057Z,98461.27
2017-11-18T05:51:49.734Z,98457.03
2017-11-18T05:52:53.722Z,98445.34
2017-11-18T05:53:57.547Z,98458.30
2017-11-18T05:55:01.215Z,98452.81
2017-11-18T05:56:05.049Z,98455.92
2017-11-18T05:57:08.885Z,98426.82
2017-11-18T05:58:12.587Z,98452.70
2017-11-18T05:59:16.911Z,98315.36
2017-11-18T06:00:20.706Z,98450.45
2017-11-18T06:01:24.384Z,98449.47
2017-11-18T06:02:28.135Z,98443.23
2017-11-18T06:03:31.876Z,98432.78
2017-11-18T06:04:35.596Z,98409.23
2017-11-18T06:05:39.605Z,98414.09
2017-11-18T06:06:43.316Z,98434.52
2017-11-18T06:07:47.003Z,98437.86
2017-11-18T06:08:50.800Z,98434.72
2017-11-18T06:09:54.604Z,98429.92
2017-11-18T06:10:58.429Z,98439.78
2017-11-18T06:12:02.401Z,98438.97
2017-11-18T06:13:06.174Z,98425.39
2017-11-18T06:14:09.912Z,98415.98
2017-11-18T06:15:13.763Z,98417.51
2017-11-18T06:16:17.601Z,98425.11
2017-11-18T06:17:21.387Z,98443.58
2017-11-18T06:18:25.524Z,98447.22
2017-11-18T06:19:29.356Z,98429.85
2017-11-18T06:20:33.211Z,98438.16
2017-11-18T06:21:37.071Z,98452.70
2017-11-18T06:22:40.958Z,98442.20
2017-11-18T06:23:44.876Z,98439.06
2017-11-18T06:24:49.008Z,98449.33
2017-11-18T06:25:52.833Z,98403.70
2017-11-18T06:26:56.589Z,98412.58
2017-11-18T06:28:00.416Z,98426.63
2017-11-18T06:29:04.227Z,98414.58
2017-11-18T06:30:08.607Z,98431.73
2017-11-18T06:31:12.798Z,98406.31
2017-11-18T06:32:16.732Z,98412.64
2017-11-18T06:33:20.621Z,98420.73
2017-11-18T06:34:24.393Z,98419.49
2017-11-18T06:35:28.247Z,98392.31
2017-11-18T06:36:32.102Z,98434.38
2017-11-18T06:37:36.227Z,98425.18
2017-11-18T06:38:40.177Z,98434.52
2017-11-18T06:39:44.081Z,98423.97
2017-11-18T06:40:47.888Z,98410.20
2017-11-18T06:41:51.686Z,98429.50
2017-11-18T06:42:55.518Z,98442.32
2017-11-18T06:43:59.618Z,98447.52
2017-11-18T06:45:03.545Z,98445.58
2017-11-18T06:46:07.417Z,98419.81
2017-11-18T06:47:11.225Z,98447.13
2017-11-18T06:48:15.118Z,98449.62
2017-11-18T06:49:19.155Z,98438.70
2017-11-18T06:50:22.967Z,98452.73
2017-11-18T06:51:26.737Z,98410.18
2017-11-18T06:52:30.506Z,98461.14
2017-11-18T06:53:34.290Z,98440.97
2017-11-18T06:54:37.837Z,98436.02
2017-11-18T06:55:41.738Z,98428.06
2017-11-18T06:56:45.352Z,98449.70
2017-11-18T06:57:49.017Z,98426.16
2017-11-18T06:58:52.565Z,98393.44
2017-11-18T06:59:56.295Z,98434.75
2017-11-18T07:00:59.995Z,98440.29
2017-11-18T07:02:04.253Z,98439.09
2017-11-18T07:03:07.977Z,98438.41
2017-11-18T07:04:11.678Z,98437.95
2017-11-18T07:05:15.367Z,98441.29
2017-11-18T07:07:38.387Z,98434.67
2017-11-18T07:08:42.149Z,98431.49
2017-11-18T07:09:45.970Z,98432.80
2017-11-18T07:10:49.871Z,98428.49
2017-11-18T07:11:53.608Z,98432.79
2017-11-18T07:12:57.460Z,98432.16
2017-11-18T07:14:01.594Z,98427.34
2017-11-18T07:15:05.386Z,98431.84
2017-11-18T07:16:09.184Z,98432.34
2017-11-18T07:17:13.074Z,98433.20
2017-11-18T07:18:17.153Z,98332.05
2017-11-18T07:19:21.047Z,98435.88
2017-11-18T07:20:25.341Z,98444.02
2017-11-18T07:21:29.127Z,98441.88
2017-11-18T07:22:32.893Z,98442.78
2017-11-18T07:23:36.679Z,98439.95
2017-11-18T07:24:40.768Z,98360.50
2017-11-18T07:25:44.769Z,98445.40
2017-11-18T07:26:49.075Z,98440.21
2017-11-18T07:27:52.913Z,98434.30
2017-11-18T07:28:56.881Z,98271.39
2017-11-18T07:30:00.825Z,98436.44
2017-11-18T07:31:05.906Z,98416.16
2017-11-18T07:32:10.019Z,98435.72
2017-11-18T07:33:14.557Z,98441.00
2017-11-18T07:34:22.754Z,98433.50
2017-11-18T07:35:26.815Z,98439.61
2017-11-18T07:36:30.613Z,98441.09
2017-11-18T07:37:34.500Z,98436.44
2017-11-18T07:38:38.457Z,98338.63
2017-11-18T07:39:42.686Z,98443.52
2017-11-18T07:40:46.511Z,98372.28
2017-11-18T07:41:50.388Z,98445.13
2017-11-18T07:42:54.190Z,98445.97
2017-11-18T07:43:58.010Z,98376.99
2017-11-18T07:45:01.832Z,98442.52
2017-11-18T07:46:06.006Z,98439.45
2017-11-18T07:47:09.959Z,98444.84
2017-11-18T07:48:13.737Z,98450.65
2017-11-18T07:49:17.609Z,98447.89
2017-11-18T07:50:21.564Z,98441.77
2017-11-18T07:51:26.083Z,98444.22
2017-11-18T07:52:30.378Z,98439.85
2017-11-18T07:53:34.148Z,98441.31
2017-11-18T07:54:37.945Z,98441.44
2017-11-18T07:55:41.941Z,98256.83
2017-11-18T07:56:46.375Z,98439.41
2017-11-18T07:57:50.287Z,98441.73
2017-11-18T07:58:54.539Z,98438.91
2017-11-18T07:59:58.334Z,98379.89
2017-11-18T08:01:02.664Z,98439.06
2017-11-18T08:02:07.459Z,98440.35
2017-11-18T08:03:11.480Z,98383.03
2017-11-18T08:04:15.807Z,98438.36
2017-11-18T08:05:20.240Z,98442.11
2017-11-18T08:06:24.611Z,98440.08
2017-11-18T08:07:28.497Z,98439.31
2017-11-18T08:08:32.366Z,98425.04
2017-11-18T08:09:37.729Z,98423.17
2017-11-18T08:10:41.440Z,98432.67
2017-11-18T08:11:46.312Z,98435.25
2017-11-18T08:12:50.057Z,98434.63
2017-11-18T08:13:53.878Z,98429.33
2017-11-18T08:15:44.284Z,98430.25
2017-11-18T08:16:48.088Z,98427.32
2017-11-18T08:17:51.857Z,98428.33
2017-11-18T08:18:55.637Z,98425.43
2017-11-18T08:19:59.425Z,98427.69
2017-11-18T08:21:03.276Z,98420.02
2017-11-18T08:22:07.048Z,98421.00
2017-11-18T08:23:11.187Z,98421.66
2017-11-18T08:24:15.050Z,98416.85
2017-11-18T08:25:18.917Z,98416.41
2017-11-18T08:26:22.720Z,98357.05
2017-11-18T08:27:26.513Z,98414.36
2017-11-18T08:28:30.404Z,98401.80
2017-11-18T08:29:35.506Z,98392.77
2017-11-18T08:30:39.368Z,98407.45
2017-11-18T08:31:43.051Z,98411.78
2017-11-18T08:32:46.960Z,98396.33
2017-11-18T08:33:50.868Z,98412.42
2017-11-18T08:34:54.695Z,98407.55
2017-11-18T08:36:03.061Z,98413.54
2017-11-18T08:37:06.884Z,98410.05
2017-11-18T08:38:10.691Z,98328.20
2017-11-18T08:39:14.533Z,98403.09
2017-11-18T08:40:18.321Z,98409.86
2017-11-18T08:41:22.901Z,98406.37
2017-11-18T08:42:27.196Z,98396.45
2017-11-18T08:43:31.042Z,98327.30
2017-11-18T08:44:34.858Z,98409.30
2017-11-18T08:45:39.042Z,98399.58
2017-11-18T08:46:43.831Z,98398.45
2017-11-18T08:47:47.723Z,98407.72
2017-11-18T08:48:51.918Z,98308.39
2017-11-18T08:49:55.746Z,98395.17
2017-11-18T08:50:59.516Z,98286.14
2017-11-18T08:52:03.334Z,98397.25
2017-11-18T08:53:07.184Z,98342.77
2017-11-18T08:54:10.994Z,98368.62
2017-11-18T08:55:15.121Z,98401.28
2017-11-18T08:56:18.937Z,98396.09
2017-11-18T08:57:22.835Z,98389.08
2017-11-18T08:58:26.729Z,98306.15
2017-11-18T08:59:30.543Z,98394.97
2017-11-18T09:00:34.418Z,98361.27
2017-11-18T09:01:38.674Z,98391.60
2017-11-18T09:02:42.455Z,98381.58
2017-11-18T09:03:46.282Z,98302.59
2017-11-18T09:04:50.103Z,98397.03
2017-11-18T09:05:53.945Z,98302.23
2017-11-18T09:06:57.829Z,98381.83
2017-11-18T09:08:02.119Z,98382.88
2017-11-18T09:09:06.119Z,98378.84
2017-11-18T09:10:09.943Z,98372.77
2017-11-18T09:11:13.907Z,98375.96
2017-11-18T09:12:17.804Z,98359.58
2017-11-18T09:13:21.605Z,98375.08
2017-11-18T09:14:25.937Z,98382.56
2017-11-18T09:15:29.746Z,98379.55
2017-11-18T09:16:34.156Z,98375.90
2017-11-18T09:17:37.969Z,98371.38
2017-11-18T09:18:41.825Z,98369.67
2017-11-18T09:19:45.679Z,98360.69
2017-11-18T09:20:50.165Z,98365.34
2017-11-18T09:21:53.947Z,98290.11
2017-11-18T09:22:57.800Z,98362.75
2017-11-18T09:24:01.612Z,98359.94
2017-11-18T09:25:05.425Z,98358.17
2017-11-18T09:26:09.365Z,98365.95
2017-11-18T09:27:13.662Z,98352.86
2017-11-18T09:28:17.520Z,98348.99
2017-11-18T09:29:21.339Z,98355.52
2017-11-18T09:30:25.150Z,98354.92
2017-11-18T09:31:29.001Z,98354.67
2017-11-18T09:32:32.826Z,98350.05
2017-11-18T09:33:37.018Z,98248.13
2017-11-18T09:34:40.926Z,98356.77
2017-11-18T09:35:44.829Z,98351.64
2017-11-18T09:36:48.627Z,98350.59
2017-11-18T09:37:52.441Z,98342.56
2017-11-18T09:38:56.303Z,98343.41
2017-11-18T09:40:00.376Z,98353.29
2017-11-18T09:41:04.083Z,98349.73
2017-11-18T09:42:07.832Z,98352.55
2017-11-18T09:43:11.559Z,98344.40
2017-11-18T09:44:15.309Z,98348.36
2017-11-18T09:45:19.129Z,98337.84
2017-11-18T09:46:23.017Z,98348.20
2017-11-18T09:47:26.964Z,98349.23
2017-11-18T09:48:30.861Z,98351.77
2017-11-18T09:49:34.835Z,98338.25
2017-11-18T09:50:39.000Z,98335.23
2017-11-18T09:51:42.917Z,98267.61
2017-11-18T09:52:46.748Z,98339.49
2017-11-18T09:53:50.576Z,98319.47
2017-11-18T09:54:54.440Z,98338.69
2017-11-18T09:55:58.301Z,98300.97
2017-11-18T09:57:03.688Z,98333.03
2017-11-18T09:58:07.595Z,98328.78
2017-11-18T09:59:11.435Z,98321.42
2017-11-18T10:00:15.244Z,98297.05
2017-11-18T10:01:19.063Z,98324.31
2017-11-18T10:02:22.868Z,98319.59
2017-11-18T10:03:28.029Z,98308.31
2017-11-18T10:04:31.821Z,98287.14
2017-11-18T10:05:36.987Z,98321.50
2017-11-18T10:06:41.321Z,98293.83
2017-11-18T10:07:45.330Z,98294.75
2017-11-18T10:08:50.474Z,98288.23
2017-11-18T10:09:54.620Z,98288.09
2017-11-18T10:10:58.810Z,98290.16
2017-11-18T10:12:14.019Z,98301.55
2017-11-18T10:13:18.315Z,98268.33
2017-11-18T10:14:23.656Z,98298.18
2017-11-18T10:15:27.970Z,98263.25
2017-11-18T10:16:32.553Z,98283.33
2017-11-18T10:17:36.725Z,98272.71
2017-11-18T10:18:40.971Z,98291.70
2017-11-18T10:19:44.958Z,98273.78
2017-11-18T10:20:49.247Z,98291.34
2017-11-18T10:21:53.401Z,98284.68
2017-11-18T10:22:58.007Z,98287.17
2017-11-18T10:24:02.038Z,98286.77
2017-11-18T10:25:06.223Z,98295.60
2017-11-18T10:26:10.319Z,98260.75
2017-11-18T10:27:14.392Z,98277.30
2017-11-18T10:28:18.726Z,98278.70
2017-11-18T10:29:23.126Z,98261.30
2017-11-18T10:30:27.264Z,98278.20
2017-11-18T10:31:32.288Z,98281.66
2017-11-18T10:32:36.479Z,98272.74
2017-11-18T10:33:40.651Z,98270.49
2017-11-18T10:34:44.653Z,98233.17
2017-11-18T10:35:49.037Z,98269.67
2017-11-18T10:36:53.179Z,98285.50
2017-11-18T10:37:57.166Z,98226.34
2017-11-18T10:39:01.327Z,98268.47
2017-11-18T10:40:05.399Z,98258.98
2017-11-18T10:41:09.744Z,98254.48
2017-11-18T10:42:14.486Z,98226.84
2017-11-18T10:43:18.511Z,98252.97
2017-11-18T10:44:22.526Z,98264.73
2017-11-18T10:45:26.608Z,98252.31
2017-11-18T10:46:30.824Z,98241.04
2017-11-18T10:47:34.926Z,98219.13
2017-11-18T10:48:39.280Z,98258.61
2017-11-18T10:49:43.604Z,98286.64
2017-11-18T10:50:47.654Z,98232.00
2017-11-18T10:51:51.606Z,98233.72
2017-11-18T10:52:55.839Z,98245.64
2017-11-18T10:53:59.909Z,98216.38
2017-11-18T10:55:04.295Z,98237.71
2017-11-18T10:56:08.331Z,98221.42
2017-11-18T10:57:12.331Z,98207.18
2017-11-18T10:58:16.345Z,98248.34
2017-11-18T11:15:17.596Z,98236.47
2017-11-18T11:16:22.240Z,98230.02
2017-11-18T11:17:26.450Z,98222.27
2017-11-18T11:18:30.864Z,98225.01
2017-11-18T11:19:35.229Z,98214.64
2017-11-18T11:20:39.751Z,98212.50
2017-11-18T11:21:44.047Z,98216.59
2017-11-18T11:22:48.284Z,98199.63
2017-11-18T11:23:52.466Z,98223.42
2017-11-18T11:24:56.830Z,98209.36
2017-11-18T11:26:01.241Z,98173.71
2017-11-18T11:27:06.084Z,98206.78
2017-11-18T11:28:10.174Z,98197.48
2017-11-18T11:29:14.469Z,98208.13
2017-11-18T11:30:18.696Z,98229.22
2017-11-18T11:31:23.009Z,98195.78
2017-11-18T11:32:27.210Z,98187.62
2017-11-18T11:33:31.960Z,98198.06
2017-11-18T11:34:36.081Z,98148.53
2017-11-18T11:35:40.243Z,98193.91
2017-11-18T11:36:44.569Z,98160.43
2017-11-18T11:37:48.668Z,98171.66
2017-11-18T11:38:53.903Z,98174.20
2017-11-18T11:39:58.350Z,98192.76
2017-11-18T11:41:02.844Z,98185.22
2017-11-18T11:42:07.102Z,98152.29
2017-11-18T11:43:11.810Z,98178.69
2017-11-18T11:44:16.170Z,98179.27
2017-11-18T11:45:20.491Z,98187.30
2017-11-18T11:46:25.079Z,98187.42
2017-11-18T11:47:29.549Z,98176.72
2017-11-18T11:48:33.868Z,98182.76
2017-11-18T11:49:38.221Z,98187.41
2017-11-18T11:50:42.439Z,98166.90
2017-11-18T11:51:46.641Z,98163.03
2017-11-18T11:52:51.141Z,98169.99
2017-11-18T11:53:55.304Z,98174.03
2017-11-18T11:54:59.549Z,98184.45
2017-11-18T11:56:03.740Z,98137.30
2017-11-18T11:57:07.689Z,98132.97
2017-11-18T11:58:11.650Z,98163.36
2017-11-18T11:59:16.144Z,98133.37
2017-11-18T12:00:20.365Z,98156.02
2017-11-18T12:01:24.427Z,98142.52
2017-11-18T12:02:28.608Z,98158.19
2017-11-18T12:03:32.703Z,98157.28
2017-11-18T12:04:36.862Z,98144.20
2017-11-18T12:05:41.356Z,98149.83
2017-11-18T12:06:45.609Z,98150.80
2017-11-18T12:07:50.170Z,98149.53
2017-11-18T12:08:54.544Z,98144.55
2017-11-18T12:09:59.329Z,98150.94
2017-11-18T12:11:03.451Z,98146.97
2017-11-18T12:12:08.089Z,98097.67
2017-11-18T12:13:12.221Z,98146.56
2017-11-18T12:14:16.443Z,98149.70
2017-11-18T12:15:20.477Z,98054.03
2017-11-18T12:16:24.591Z,98148.37
2017-11-18T12:17:29.070Z,98136.30
2017-11-18T12:18:33.680Z,98131.20
2017-11-18T12:19:38.071Z,98148.20
2017-11-18T12:20:42.278Z,98129.95
2017-11-18T12:21:46.739Z,98135.66
2017-11-18T12:22:51.040Z,98132.11
2017-11-18T12:23:55.160Z,98132.14
2017-11-18T12:24:59.878Z,98131.68
2017-11-18T12:26:04.190Z,98151.13
2017-11-18T12:27:08.386Z,98130.36
2017-11-18T12:28:12.550Z,98016.42
2017-11-18T12:29:16.666Z,98132.03
2017-11-18T12:30:20.875Z,98137.45
2017-11-18T12:31:25.464Z,98152.58
2017-11-18T12:32:31.138Z,98136.84
2017-11-18T12:33:36.147Z,98137.52
2017-11-18T12:34:41.466Z,98128.17
2017-11-18T12:35:52.683Z,98134.40
2017-11-18T12:37:05.787Z,98106.75
2017-11-18T12:38:16.057Z,98057.02
2017-11-18T12:39:22.360Z,98127.53
2017-11-18T12:40:26.396Z,98130.80
2017-11-18T12:41:31.172Z,98129.20
2017-11-18T12:42:35.897Z,98120.87
2017-11-18T12:43:40.611Z,98128.44
2017-11-18T12:44:49.023Z,98114.34
2017-11-18T12:45:53.254Z,98091.77
2017-11-18T12:46:57.377Z,98038.03
2017-11-18T12:48:01.538Z,98122.10
2017-11-18T12:49:06.198Z,98125.05
2017-11-18T12:50:10.368Z,98056.38
2017-11-18T12:51:14.573Z,98124.29
2017-11-18T12:52:18.697Z,98117.22
2017-11-18T12:53:22.873Z,98019.84
2017-11-18T12:54:26.940Z,98130.02
2017-11-18T12:55:31.976Z,98119.85
2017-11-18T12:56:36.115Z,98110.06
2017-11-18T12:57:40.205Z,98118.69
2017-11-18T12:58:44.240Z,98082.26
2017-11-18T12:59:48.424Z,98132.78
2017-11-18T13:00:52.601Z,98113.01
2017-11-18T13:01:57.149Z,98116.25
2017-11-18T13:03:01.216Z,98077.97
2017-11-18T13:04:05.350Z,98116.42
2017-11-18T13:05:09.443Z,98121.14
2017-11-18T13:06:13.516Z,98102.35
2017-11-18T13:07:17.668Z,98098.13
2017-11-18T13:08:22.076Z,98077.69
2017-11-18T13:09:26.314Z,98090.84
2017-11-18T13:10:30.433Z,98068.19
2017-11-18T13:11:34.467Z,98077.94
2017-11-18T13:12:39.366Z,97986.91
2017-11-18T13:13:43.503Z,98051.33
2017-11-18T13:14:47.903Z,98045.61
2017-11-18T13:15:51.981Z,98070.05
2017-11-18T13:16:56.182Z,98051.83
2017-11-18T13:18:00.312Z,98071.25
2017-11-18T13:19:04.498Z,98050.77
2017-11-18T13:20:09.209Z,98045.59
2017-11-18T13:21:13.689Z,98058.69